Time;durP1;ratioP1;P1;durP2;ratioP2;P2;SDS_P1;SDS_P2;PMS_P1;PMS_P2;Temp;Humidity;BMP_temperature;BMP_pressure;BME280_temperature;BME280_humidity;BME280_pressure;Samples;Min_cycle;Max_cycle;Signal;HPM_P1;HPM_P2
2021/07/13 00:00:42;;;;;;;;;;;24.80;47.10;;;;;;8327157;28;19917;-49
2021/07/13 00:04:42;;;;;;;;;;;24.90;47.20;;;;;;8331062;28;19920;-49
2021/07/13 00:08:43;;;;;;;;;;;24.80;47.20;;;;;;8327007;28;19925;-51
2021/07/13 00:12:43;;;;;;;;;;;24.90;47.30;;;;;;8326690;28;19949;-49
2021/07/13 00:16:44;;;;;;;;;;;24.80;47.30;;;;;;8326114;28;19929;-49
2021/07/13 00:20:45;;;;;;;;;;;24.80;47.20;;;;;;8331088;28;19920;-48
2021/07/13 00:24:45;;;;;;;;;;;24.80;47.30;;;;;;8326219;28;19918;-48
2021/07/13 00:28:46;;;;;;;;;;;24.80;47.20;;;;;;8326075;28;19925;-49
2021/07/13 00:32:46;;;;;;;;;;;24.80;47.20;;;;;;8326219;28;19920;-49
2021/07/13 00:36:47;;;;;;;;;;;24.80;47.30;;;;;;8330099;28;20013;-48
2021/07/13 00:40:47;;;;;;;;;;;24.80;47.20;;;;;;8337072;28;19913;-47
2021/07/13 00:44:48;;;;;;;;;;;24.80;47.20;;;;;;8333252;28;19929;-47
2021/07/13 00:48:49;;;;;;;;;;;24.80;47.20;;;;;;8332212;28;19932;-48
2021/07/13 00:52:50;;;;;;;;;;;24.80;47.20;;;;;;8332259;28;19999;-49
2021/07/13 00:56:52;;;;;;;;;;;24.80;47.20;;;;;;8337068;28;19919;-48
2021/07/13 01:00:52;;;;;;;;;;;24.80;47.20;;;;;;8331647;28;20008;-48
2021/07/13 01:04:58;;;;;;;;;;;24.80;47.30;;;;;;8332018;28;20344;-48
2021/07/13 01:09:06;;;;;;;;;;;24.80;47.30;;;;;;8332096;28;20023;-48
2021/07/13 01:13:21;;;;;;;;;;;24.80;47.20;;;;;;8331114;28;19995;-49
2021/07/13 01:17:33;;;;;;;;;;;24.70;47.20;;;;;;8336424;28;19913;-48
2021/07/13 01:21:39;;;;;;;;;;;24.80;47.30;;;;;;8331928;28;19917;-48
2021/07/13 01:25:46;;;;;;;;;;;24.80;47.30;;;;;;8331256;28;19918;-49
2021/07/13 01:29:47;;;;;;;;;;;24.70;47.30;;;;;;8332096;28;19929;-48
2021/07/13 01:33:50;;;;;;;;;;;24.70;47.30;;;;;;8331808;28;19920;-48
2021/07/13 01:37:51;;;;;;;;;;;24.70;47.30;;;;;;8335457;28;19921;-48
2021/07/13 01:41:54;;;;;;;;;;;24.70;47.30;;;;;;8331219;28;19917;-48
2021/07/13 01:45:55;;;;;;;;;;;24.70;47.30;;;;;;8331174;28;19917;-48
2021/07/13 01:49:57;;;;;;;;;;;24.70;47.30;;;;;;8329333;28;19925;-48
2021/07/13 01:54:06;;;;;;;;;;;24.70;47.30;;;;;;8335332;28;19960;-49
2021/07/13 01:58:07;;;;;;;;;;;24.70;47.30;;;;;;8330523;28;19924;-48
2021/07/13 02:02:08;;;;;;;;;;;24.70;47.30;;;;;;8331031;28;20004;-48
2021/07/13 02:06:09;;;;;;;;;;;24.70;47.30;;;;;;8321058;28;19932;-50
2021/07/13 02:10:13;;;;;;;;;;;24.70;47.30;;;;;;8298981;28;19922;-50
2021/07/13 02:14:14;;;;;;;;;;;24.70;47.30;;;;;;8335088;28;19914;-49
2021/07/13 02:18:14;;;;;;;;;;;24.60;47.30;;;;;;8330116;28;19923;-49
2021/07/13 02:22:15;;;;;;;;;;;24.60;47.30;;;;;;8329899;28;20374;-50
2021/07/13 02:26:19;;;;;;;;;;;24.60;47.30;;;;;;8329813;28;20367;-50
2021/07/13 02:30:20;;;;;;;;;;;24.60;47.40;;;;;;8334083;28;19975;-50
2021/07/13 02:34:21;;;;;;;;;;;24.60;47.40;;;;;;8301370;28;20012;-50
2021/07/13 02:38:22;;;;;;;;;;;24.60;47.40;;;;;;8315960;28;19921;-50
2021/07/13 02:42:24;;;;;;;;;;;24.60;47.40;;;;;;8329367;28;20066;-50
2021/07/13 02:46:27;;;;;;;;;;;24.60;47.40;;;;;;8333347;28;20378;-50
2021/07/13 02:50:29;;;;;;;;;;;24.60;47.40;;;;;;8329291;28;19979;-49
2021/07/13 02:54:30;;;;;;;;;;;24.60;47.40;;;;;;8328982;28;19924;-48
2021/07/13 02:58:31;;;;;;;;;;;24.60;47.40;;;;;;8328271;28;19917;-49
2021/07/13 03:02:32;;;;;;;;;;;24.60;47.40;;;;;;8328970;28;19921;-49
2021/07/13 03:06:32;;;;;;;;;;;24.60;47.40;;;;;;8333273;28;19928;-49
2021/07/13 03:10:33;;;;;;;;;;;24.60;47.50;;;;;;8327931;28;19979;-50
2021/07/13 03:14:33;;;;;;;;;;;24.60;47.50;;;;;;8328466;28;19996;-50
2021/07/13 03:18:34;;;;;;;;;;;24.50;47.50;;;;;;8328191;28;20015;-49
2021/07/13 03:22:37;;;;;;;;;;;24.50;47.50;;;;;;8332064;28;19995;-49
2021/07/13 03:26:39;;;;;;;;;;;24.50;47.50;;;;;;8327992;28;19917;-49
2021/07/13 03:30:40;;;;;;;;;;;24.50;47.50;;;;;;8327703;28;19937;-50
2021/07/13 03:34:41;;;;;;;;;;;24.50;47.50;;;;;;8327604;28;20392;-49
2021/07/13 03:38:42;;;;;;;;;;;24.50;47.50;;;;;;8327599;28;19995;-53
2021/07/13 03:42:44;;;;;;;;;;;24.50;47.50;;;;;;8331991;28;20028;-52
2021/07/13 03:46:44;;;;;;;;;;;24.50;47.50;;;;;;8326898;28;19921;-51
2021/07/13 03:50:45;;;;;;;;;;;24.50;47.50;;;;;;8327227;28;19929;-51
2021/07/13 03:54:45;;;;;;;;;;;24.50;47.50;;;;;;8327236;28;20294;-51
2021/07/13 03:58:46;;;;;;;;;;;24.50;47.50;;;;;;8331172;28;19931;-50
2021/07/13 04:02:46;;;;;;;;;;;24.40;47.40;;;;;;8327051;28;19917;-50
2021/07/13 04:06:47;;;;;;;;;;;24.40;47.40;;;;;;8327089;28;20031;-49
2021/07/13 04:10:47;;;;;;;;;;;24.40;47.50;;;;;;8325516;28;19925;-50
2021/07/13 04:14:48;;;;;;;;;;;24.40;47.50;;;;;;8331059;28;19917;-49
2021/07/13 04:18:48;;;;;;;;;;;24.40;47.50;;;;;;8295430;28;20434;-49
2021/07/13 04:22:49;;;;;;;;;;;24.40;47.50;;;;;;8315745;28;19928;-50
2021/07/13 04:26:50;;;;;;;;;;;24.40;47.40;;;;;;8326669;28;19928;-49
2021/07/13 04:30:50;;;;;;;;;;;24.40;47.50;;;;;;8326269;28;19933;-50
2021/07/13 04:34:50;;;;;;;;;;;24.40;47.50;;;;;;8330463;28;19979;-50
2021/07/13 04:38:51;;;;;;;;;;;24.30;47.40;;;;;;8326332;28;20408;-50
2021/07/13 04:42:52;;;;;;;;;;;24.30;47.90;;;;;;8311349;28;19918;-49
2021/07/13 04:46:54;;;;;;;;;;;24.30;47.40;;;;;;8299447;28;19917;-49
2021/07/13 04:50:55;;;;;;;;;;;24.30;47.40;;;;;;8330705;28;19956;-49
2021/07/13 04:54:55;;;;;;;;;;;24.30;47.40;;;;;;8325980;28;19917;-50
2021/07/13 04:58:55;;;;;;;;;;;24.30;47.40;;;;;;8325997;28;19921;-47
2021/07/13 05:02:56;;;;;;;;;;;24.30;47.30;;;;;;8326136;28;19960;-47
2021/07/13 05:06:56;;;;;;;;;;;24.30;47.30;;;;;;8328396;28;19921;-47
2021/07/13 05:10:57;;;;;;;;;;;24.30;47.30;;;;;;8295727;28;19955;-49
2021/07/13 05:14:57;;;;;;;;;;;24.30;47.40;;;;;;8316777;28;19924;-50
2021/07/13 05:19:00;;;;;;;;;;;24.30;47.30;;;;;;8325658;28;19919;-49
2021/07/13 05:23:06;;;;;;;;;;;24.20;47.30;;;;;;8328755;28;19928;-48
2021/07/13 05:27:09;;;;;;;;;;;24.20;47.30;;;;;;8336277;28;19959;-49
2021/07/13 05:31:09;;;;;;;;;;;24.20;47.30;;;;;;8331012;28;20007;-49
2021/07/13 05:35:10;;;;;;;;;;;24.20;47.30;;;;;;8331609;28;19957;-48
2021/07/13 05:39:10;;;;;;;;;;;24.20;47.30;;;;;;8331343;28;19920;-49
2021/07/13 05:43:12;;;;;;;;;;;24.20;47.30;;;;;;8335337;28;19964;-49
2021/07/13 05:47:12;;;;;;;;;;;24.20;47.30;;;;;;8331157;28;19917;-49
2021/07/13 05:51:13;;;;;;;;;;;24.20;47.30;;;;;;8331066;28;20385;-49
2021/07/13 05:55:13;;;;;;;;;;;24.10;47.30;;;;;;8330305;28;20015;-49
2021/07/13 05:59:13;;;;;;;;;;;24.10;47.30;;;;;;8330835;28;20481;-48
2021/07/13 06:03:14;;;;;;;;;;;24.10;47.30;;;;;;8335253;28;19960;-49
2021/07/13 06:07:14;;;;;;;;;;;24.10;47.30;;;;;;8330515;28;19921;-49
2021/07/13 06:11:15;;;;;;;;;;;24.10;47.30;;;;;;8330731;28;20440;-48
2021/07/13 06:15:15;;;;;;;;;;;24.10;47.30;;;;;;8330256;28;19917;-49
2021/07/13 06:19:16;;;;;;;;;;;24.10;47.30;;;;;;8334475;28;19928;-50
2021/07/13 06:23:17;;;;;;;;;;;24.10;47.20;;;;;;8301875;28;20436;-50
2021/07/13 06:27:17;;;;;;;;;;;24.10;47.30;;;;;;8298171;28;19971;-49
2021/07/13 06:31:18;;;;;;;;;;;24.10;47.30;;;;;;8306398;28;19917;-48
2021/07/13 06:35:18;;;;;;;;;;;24.10;47.30;;;;;;8333918;28;19913;-49
2021/07/13 06:39:19;;;;;;;;;;;24.10;47.30;;;;;;8329935;28;19921;-49
2021/07/13 06:43:19;;;;;;;;;;;24.10;47.30;;;;;;8329075;28;19921;-48
2021/07/13 06:47:19;;;;;;;;;;;24.10;47.20;;;;;;8317344;28;20008;-47
2021/07/13 06:51:20;;;;;;;;;;;24.00;47.20;;;;;;8299968;28;19970;-50
2021/07/13 06:55:20;;;;;;;;;;;24.10;47.20;;;;;;8333150;28;19913;-49
2021/07/13 06:59:21;;;;;;;;;;;24.00;47.20;;;;;;8328900;28;20028;-47
2021/07/13 07:03:21;;;;;;;;;;;24.00;47.30;;;;;;8329355;28;19917;-48
2021/07/13 07:07:22;;;;;;;;;;;24.00;47.20;;;;;;8328503;28;19925;-48
2021/07/13 07:11:23;;;;;;;;;;;24.00;47.20;;;;;;8333114;28;19944;-49
2021/07/13 07:15:23;;;;;;;;;;;24.10;47.30;;;;;;8328606;28;20286;-49
2021/07/13 07:19:23;;;;;;;;;;;24.00;47.20;;;;;;8326751;28;19921;-49
2021/07/13 07:23:24;;;;;;;;;;;24.00;47.20;;;;;;8328638;28;19948;-50
2021/07/13 07:27:24;;;;;;;;;;;24.00;47.20;;;;;;8329211;28;19994;-50
2021/07/13 07:31:25;;;;;;;;;;;24.00;47.20;;;;;;8330941;28;19921;-48
2021/07/13 07:35:26;;;;;;;;;;;24.00;47.20;;;;;;8328005;28;19940;-51
2021/07/13 07:39:26;;;;;;;;;;;24.00;47.30;;;;;;8327598;28;20020;-50
2021/07/13 07:43:27;;;;;;;;;;;24.00;47.30;;;;;;8327219;28;19921;-49
2021/07/13 07:47:27;;;;;;;;;;;23.90;47.20;;;;;;8331306;28;20311;-49
2021/07/13 07:51:27;;;;;;;;;;;23.90;47.30;;;;;;8327459;28;20077;-49
2021/07/13 07:55:28;;;;;;;;;;;23.90;47.30;;;;;;8327028;28;19921;-51
2021/07/13 07:59:29;;;;;;;;;;;23.90;47.20;;;;;;8327377;28;20267;-51
2021/07/13 08:03:29;;;;;;;;;;;23.90;47.30;;;;;;8331743;28;19913;-51
2021/07/13 08:07:30;;;;;;;;;;;23.90;47.30;;;;;;8326366;28;19925;-50
2021/07/13 08:11:30;;;;;;;;;;;23.90;47.30;;;;;;8326405;28;19917;-50
2021/07/13 08:15:31;;;;;;;;;;;23.90;47.30;;;;;;8326628;28;19913;-50
2021/07/13 08:19:38;;;;;;;;;;;23.90;47.30;;;;;;8326182;28;20306;-50
2021/07/13 08:23:38;;;;;;;;;;;23.90;47.30;;;;;;8331036;28;19924;-49
2021/07/13 08:27:39;;;;;;;;;;;23.80;47.30;;;;;;8326382;28;20314;-53
2021/07/13 08:31:39;;;;;;;;;;;23.80;47.30;;;;;;8326024;28;19921;-49
2021/07/13 08:35:40;;;;;;;;;;;23.80;47.30;;;;;;8326848;28;20004;-49
2021/07/13 08:39:40;;;;;;;;;;;23.80;47.30;;;;;;8331162;28;19917;-49
2021/07/13 08:43:42;;;;;;;;;;;23.80;47.30;;;;;;8326043;28;19924;-49
2021/07/13 08:47:43;;;;;;;;;;;23.80;47.30;;;;;;8326400;28;19928;-49
2021/07/13 08:51:43;;;;;;;;;;;23.80;47.30;;;;;;8326305;28;19913;-49
2021/07/13 08:55:44;;;;;;;;;;;23.80;47.30;;;;;;8330436;28;19971;-49
2021/07/13 08:59:44;;;;;;;;;;;23.80;47.40;;;;;;8332912;28;19968;-50
2021/07/13 09:03:56;;;;;;;;;;;23.80;47.40;;;;;;8332028;28;19917;-50
2021/07/13 09:08:09;;;;;;;;;;;23.80;47.40;;;;;;8332129;28;19925;-49
2021/07/13 09:12:11;;;;;;;;;;;23.70;47.40;;;;;;8332255;28;19924;-51
2021/07/13 09:16:13;;;;;;;;;;;23.80;47.40;;;;;;8336253;28;19917;-48
2021/07/13 09:20:22;;;;;;;;;;;23.70;48.00;;;;;;8332331;28;19917;-48
2021/07/13 09:24:22;;;;;;;;;;;23.70;47.40;;;;;;8335829;28;20397;-49
2021/07/13 09:28:24;;;;;;;;;;;23.70;47.40;;;;;;8331422;28;19921;-49
2021/07/13 09:32:28;;;;;;;;;;;23.70;47.50;;;;;;8332093;28;19917;-50
2021/07/13 09:36:29;;;;;;;;;;;23.70;47.50;;;;;;8336327;28;20389;-50
2021/07/13 09:40:34;;;;;;;;;;;23.70;47.40;;;;;;8331114;28;19917;-47
2021/07/13 09:44:37;;;;;;;;;;;23.70;47.50;;;;;;8331279;28;19980;-49
2021/07/13 09:48:38;;;;;;;;;;;23.70;47.50;;;;;;8328414;28;19975;-49
2021/07/13 09:52:38;;;;;;;;;;;23.70;47.50;;;;;;8335203;28;19924;-50
2021/07/13 09:56:39;;;;;;;;;;;23.70;47.50;;;;;;8330985;28;19917;-49
2021/07/13 10:00:40;;;;;;;;;;;23.70;47.50;;;;;;8330841;28;19918;-48
2021/07/13 10:04:40;;;;;;;;;;;23.70;47.60;;;;;;8330512;28;19917;-48
2021/07/13 10:08:41;;;;;;;;;;;23.70;47.50;;;;;;8330017;28;20401;-53
2021/07/13 10:12:42;;;;;;;;;;;23.70;47.50;;;;;;8335104;28;19924;-50
2021/07/13 10:16:42;;;;;;;;;;;23.70;47.50;;;;;;8330164;28;20008;-48
2021/07/13 10:20:43;;;;;;;;;;;23.70;47.50;;;;;;8330068;28;19917;-49
2021/07/13 10:24:44;;;;;;;;;;;23.60;47.50;;;;;;8330174;28;19919;-52
2021/07/13 10:28:44;;;;;;;;;;;23.70;47.90;;;;;;8334076;28;19929;-52
2021/07/13 10:32:45;;;;;;;;;;;23.60;47.80;;;;;;8330414;28;19924;-51
2021/07/13 10:36:45;;;;;;;;;;;23.60;47.80;;;;;;8329941;28;19966;-48
2021/07/13 10:40:46;;;;;;;;;;;23.60;47.90;;;;;;8329210;28;19932;-49
2021/07/13 10:44:52;;;;;;;;;;;23.60;48.00;;;;;;8334377;28;19913;-48
2021/07/13 10:49:12;;;;;;;;;;;23.60;48.10;;;;;;8329304;28;19952;-50
2021/07/13 10:53:15;;;;;;;;;;;23.60;48.10;;;;;;8328793;28;19963;-48
2021/07/13 10:57:24;;;;;;;;;;;23.60;48.20;;;;;;8313536;28;19924;-49
2021/07/13 11:01:35;;;;;;;;;;;23.60;48.10;;;;;;8302698;28;19918;-47
2021/07/13 11:05:38;;;;;;;;;;;23.60;48.10;;;;;;8333786;28;20354;-48
2021/07/13 11:09:40;;;;;;;;;;;23.60;48.10;;;;;;8328562;28;19925;-49
2021/07/13 11:13:41;;;;;;;;;;;23.60;48.30;;;;;;8328041;28;19962;-49
2021/07/13 11:17:42;;;;;;;;;;;23.60;48.20;;;;;;8328834;28;20004;-48
2021/07/13 11:21:47;;;;;;;;;;;23.60;48.30;;;;;;8328241;28;23000;-47
2021/07/13 11:26:01;;;;;;;;;;;23.60;48.30;;;;;;8332238;28;19913;-48
2021/07/13 11:30:02;;;;;;;;;;;23.60;48.20;;;;;;8326678;28;19925;-49
2021/07/13 11:34:02;;;;;;;;;;;23.60;48.30;;;;;;8310576;28;19952;-48
2021/07/13 11:38:06;;;;;;;;;;;23.60;48.20;;;;;;8303357;28;19918;-48
2021/07/13 11:42:09;;;;;;;;;;;23.60;48.30;;;;;;8332579;28;20039;-48
2021/07/13 11:46:10;;;;;;;;;;;23.50;48.20;;;;;;8327050;28;19925;-48
2021/07/13 11:50:11;;;;;;;;;;;23.50;48.50;;;;;;8305337;28;20021;-49
2021/07/13 11:54:12;;;;;;;;;;;23.60;48.40;;;;;;8308291;28;20336;-49
2021/07/13 11:58:23;;;;;;;;;;;23.50;48.30;;;;;;8326875;28;19924;-49
2021/07/13 12:02:24;;;;;;;;;;;23.50;48.20;;;;;;8332425;28;19940;-50
2021/07/13 12:06:25;;;;;;;;;;;23.50;48.40;;;;;;8326806;28;19921;-47
2021/07/13 12:10:25;;;;;;;;;;;23.50;48.50;;;;;;8326636;28;20093;-50
2021/07/13 12:14:26;;;;;;;;;;;23.50;48.40;;;;;;8319667;28;19918;-51
2021/07/13 12:18:27;;;;;;;;;;;23.50;48.30;;;;;;8298808;28;19913;-50
2021/07/13 12:22:27;;;;;;;;;;;23.50;48.30;;;;;;8325247;28;19944;-52
2021/07/13 12:26:28;;;;;;;;;;;23.50;48.60;;;;;;8305767;28;20363;-50
2021/07/13 12:30:28;;;;;;;;;;;23.50;48.50;;;;;;8305464;28;20378;-52
2021/07/13 12:34:30;;;;;;;;;;;23.50;48.40;;;;;;8325733;28;20350;-52
2021/07/13 12:38:37;;;;;;;;;;;23.50;48.50;;;;;;8331166;28;20320;-51
2021/07/13 12:42:46;;;;;;;;;;;23.50;48.30;;;;;;8328599;28;20275;-50
2021/07/13 12:46:46;;;;;;;;;;;23.50;48.30;;;;;;8326405;28;19917;-48
2021/07/13 12:50:48;;;;;;;;;;;23.50;48.30;;;;;;8318932;28;20282;-48
2021/07/13 12:54:58;;;;;;;;;;;23.50;48.50;;;;;;8298040;28;19972;-52
2021/07/13 12:59:08;;;;;;;;;;;23.50;48.50;;;;;;8324806;28;19924;-53
2021/07/13 13:03:11;;;;;;;;;;;23.50;48.50;;;;;;8325917;28;19917;-53
2021/07/13 13:07:21;;;;;;;;;;;23.40;48.40;;;;;;8325938;28;19961;-52
2021/07/13 13:11:24;;;;;;;;;;;23.50;48.40;;;;;;8325802;28;20039;-52
2021/07/13 13:15:26;;;;;;;;;;;23.50;48.40;;;;;;8330582;28;20004;-48
2021/07/13 13:19:28;;;;;;;;;;;23.50;48.50;;;;;;8296478;28;19936;-49
2021/07/13 13:23:29;;;;;;;;;;;23.50;48.40;;;;;;8275586;28;19924;-53
2021/07/13 13:27:29;;;;;;;;;;;23.50;48.40;;;;;;8303467;28;19917;-52
2021/07/13 13:31:29;;;;;;;;;;;23.50;48.40;;;;;;8325957;28;19921;-53
2021/07/13 13:39:43;;;;;;;;;;;23.50;48.50;;;;;;8327809;28;19921;-51
2021/07/13 13:43:43;;;;;;;;;;;23.50;48.60;;;;;;8311517;28;19917;-48
2021/07/13 13:47:44;;;;;;;;;;;23.50;48.40;;;;;;8304733;28;19972;-48
2021/07/13 13:51:44;;;;;;;;;;;23.50;48.50;;;;;;8335495;28;19932;-48
2021/07/13 13:55:45;;;;;;;;;;;23.50;48.40;;;;;;8302236;28;19918;-47
2021/07/13 13:59:45;;;;;;;;;;;23.50;48.40;;;;;;8317959;28;19917;-47
2021/07/13 14:03:46;;;;;;;;;;;23.50;48.40;;;;;;8330903;28;19924;-48
2021/07/13 14:07:47;;;;;;;;;;;23.50;48.30;;;;;;8335231;28;19928;-48
2021/07/13 14:11:47;;;;;;;;;;;23.50;48.40;;;;;;8298814;28;20001;-48
2021/07/13 14:15:48;;;;;;;;;;;23.50;48.40;;;;;;8320470;28;20354;-50
2021/07/13 14:19:48;;;;;;;;;;;23.50;48.40;;;;;;8329917;28;19999;-52
2021/07/13 14:23:49;;;;;;;;;;;23.50;48.30;;;;;;8330296;28;19971;-51
2021/07/13 14:27:49;;;;;;;;;;;23.50;48.30;;;;;;8334748;28;19932;-51
2021/07/13 14:31:50;;;;;;;;;;;23.50;48.30;;;;;;8329463;28;20385;-50
2021/07/13 14:35:52;;;;;;;;;;;23.50;48.30;;;;;;8313778;28;19989;-52
2021/07/13 14:39:53;;;;;;;;;;;23.50;48.30;;;;;;8304044;28;20377;-51
2021/07/13 14:43:53;;;;;;;;;;;23.50;48.30;;;;;;8333621;28;19917;-49
2021/07/13 14:47:54;;;;;;;;;;;23.50;48.30;;;;;;8329283;28;19925;-49
2021/07/13 14:51:54;;;;;;;;;;;23.50;48.30;;;;;;8329214;28;20267;-54
2021/07/13 14:55:54;;;;;;;;;;;23.50;48.30;;;;;;8328155;28;20434;-49
2021/07/13 14:59:55;;;;;;;;;;;23.50;48.20;;;;;;8330011;28;19914;-50
2021/07/13 15:03:55;;;;;;;;;;;23.50;48.20;;;;;;8332478;28;19921;-48
2021/07/13 15:07:56;;;;;;;;;;;23.50;48.20;;;;;;8327596;28;19960;-50
2021/07/13 15:11:58;;;;;;;;;;;23.50;48.20;;;;;;8328604;28;19913;-51
2021/07/13 15:15:59;;;;;;;;;;;23.50;48.10;;;;;;8328481;28;19921;-53
2021/07/13 15:19:59;;;;;;;;;;;23.50;48.20;;;;;;8332212;28;20336;-53
2021/07/13 15:24:00;;;;;;;;;;;23.50;48.70;;;;;;8301444;28;19956;-53
2021/07/13 15:28:01;;;;;;;;;;;23.50;48.20;;;;;;8296189;28;20068;-51
2021/07/13 15:32:01;;;;;;;;;;;23.50;48.10;;;;;;8302878;28;19996;-52
2021/07/13 15:36:02;;;;;;;;;;;23.50;48.10;;;;;;8332601;28;19925;-51
2021/07/13 15:40:03;;;;;;;;;;;23.50;48.10;;;;;;8327883;28;19925;-52
2021/07/13 15:44:03;;;;;;;;;;;23.50;48.20;;;;;;8327090;28;19917;-49
2021/07/13 15:48:04;;;;;;;;;;;23.50;48.00;;;;;;8327759;28;20413;-49
2021/07/13 15:52:05;;;;;;;;;;;23.50;48.00;;;;;;8327556;28;20340;-50
2021/07/13 15:56:06;;;;;;;;;;;23.50;48.00;;;;;;8331274;28;19981;-49
2021/07/13 16:00:07;;;;;;;;;;;23.40;48.00;;;;;;8327298;28;19956;-51
2021/07/13 16:04:07;;;;;;;;;;;23.40;48.00;;;;;;8326857;28;19913;-51
2021/07/13 16:08:08;;;;;;;;;;;23.40;48.00;;;;;;8326194;28;20370;-55
2021/07/13 16:12:09;;;;;;;;;;;23.40;47.90;;;;;;8331499;28;20007;-53
2021/07/13 16:16:09;;;;;;;;;;;23.40;47.90;;;;;;8326450;28;19917;-51
2021/07/13 16:20:10;;;;;;;;;;;23.40;48.10;;;;;;8326664;28;19936;-52
2021/07/13 16:24:10;;;;;;;;;;;23.40;48.00;;;;;;8326843;28;19925;-53
2021/07/13 16:28:11;;;;;;;;;;;23.40;48.00;;;;;;8330681;28;19929;-51
2021/07/13 16:32:12;;;;;;;;;;;23.40;48.00;;;;;;8326845;28;19918;-49
2021/07/13 16:36:13;;;;;;;;;;;23.40;48.00;;;;;;8326241;28;19992;-52
2021/07/13 16:40:15;;;;;;;;;;;23.40;48.00;;;;;;8325433;28;19917;-52
2021/07/13 16:44:15;;;;;;;;;;;23.40;47.90;;;;;;8323897;28;19943;-49
2021/07/13 16:48:15;;;;;;;;;;;23.40;47.90;;;;;;8298583;28;20485;-49
2021/07/13 16:52:16;;;;;;;;;;;23.40;48.00;;;;;;8319338;28;19963;-52
2021/07/13 16:56:16;;;;;;;;;;;23.40;48.00;;;;;;8326230;28;19917;-53
2021/07/13 17:00:17;;;;;;;;;;;23.30;47.90;;;;;;8326126;28;19924;-50
2021/07/13 17:04:17;;;;;;;;;;;23.30;47.90;;;;;;8330031;28;20044;-49
2021/07/13 17:08:19;;;;;;;;;;;23.30;47.90;;;;;;8325875;28;19931;-49
2021/07/13 17:12:19;;;;;;;;;;;23.30;47.90;;;;;;8306218;28;20370;-50
2021/07/13 17:16:20;;;;;;;;;;;23.30;47.90;;;;;;8303489;28;19923;-50
2021/07/13 17:20:21;;;;;;;;;;;23.30;47.90;;;;;;8333229;28;19996;-52
2021/07/13 17:24:21;;;;;;;;;;;23.30;48.00;;;;;;8337456;28;19917;-49
2021/07/13 17:28:22;;;;;;;;;;;23.30;48.00;;;;;;8332881;28;19932;-49
2021/07/13 17:32:22;;;;;;;;;;;23.30;48.00;;;;;;8332930;28;19983;-49
2021/07/13 17:36:22;;;;;;;;;;;23.30;48.00;;;;;;8328728;28;19914;-48
2021/07/13 17:40:23;;;;;;;;;;;23.30;48.00;;;;;;8304235;28;19921;-49
2021/07/13 17:44:23;;;;;;;;;;;23.30;48.00;;;;;;8326822;28;19921;-48
2021/07/13 17:48:24;;;;;;;;;;;23.30;48.00;;;;;;8331407;28;20031;-49
2021/07/13 17:52:24;;;;;;;;;;;23.30;48.00;;;;;;8330616;28;19917;-52
2021/07/13 17:56:25;;;;;;;;;;;23.30;48.00;;;;;;8335384;28;20391;-53
2021/07/13 18:00:25;;;;;;;;;;;23.20;48.00;;;;;;8329807;28;19917;-50
2021/07/13 18:04:29;;;;;;;;;;;23.20;48.00;;;;;;8309453;28;19925;-47
2021/07/13 18:08:29;;;;;;;;;;;23.20;48.00;;;;;;8310402;28;20270;-49
2021/07/13 18:12:30;;;;;;;;;;;23.20;48.00;;;;;;8330318;28;19917;-51
2021/07/13 18:16:30;;;;;;;;;;;23.30;48.00;;;;;;8334616;28;19971;-54
2021/07/13 18:20:31;;;;;;;;;;;23.20;48.00;;;;;;8330270;28;20012;-50
2021/07/13 18:24:32;;;;;;;;;;;23.20;48.10;;;;;;8330302;28;19913;-52
2021/07/13 18:28:32;;;;;;;;;;;23.20;48.00;;;;;;8329051;28;19971;-49
2021/07/13 18:32:33;;;;;;;;;;;23.20;48.10;;;;;;8334394;28;19958;-49
2021/07/13 18:36:34;;;;;;;;;;;23.20;48.10;;;;;;8329824;28;19921;-50
2021/07/13 18:40:36;;;;;;;;;;;23.20;48.10;;;;;;8329179;28;19924;-48
2021/07/13 18:44:36;;;;;;;;;;;23.20;48.10;;;;;;8329876;28;19948;-49
2021/07/13 18:48:37;;;;;;;;;;;23.20;48.00;;;;;;8333874;28;20386;-48
2021/07/13 18:52:37;;;;;;;;;;;23.20;48.10;;;;;;8329000;28;19917;-50
2021/07/13 18:56:38;;;;;;;;;;;23.20;48.10;;;;;;8329113;28;20286;-49
2021/07/13 19:00:40;;;;;;;;;;;23.10;48.10;;;;;;8328962;28;19913;-49
2021/07/13 19:04:41;;;;;;;;;;;23.20;48.10;;;;;;8328687;28;20461;-50
2021/07/13 19:08:42;;;;;;;;;;;23.10;48.00;;;;;;8333800;28;19932;-51
2021/07/13 19:12:42;;;;;;;;;;;23.10;48.00;;;;;;8328724;28;19917;-48
2021/07/13 19:16:43;;;;;;;;;;;23.10;48.00;;;;;;8311584;28;19918;-51
2021/07/13 19:20:43;;;;;;;;;;;23.10;48.10;;;;;;8296709;28;19913;-50
2021/07/13 19:24:44;;;;;;;;;;;23.10;48.00;;;;;;8300181;28;19985;-50
2021/07/13 19:28:44;;;;;;;;;;;23.10;48.10;;;;;;8324933;28;20008;-51
2021/07/13 19:32:46;;;;;;;;;;;23.10;48.10;;;;;;8328008;28;20392;-48
2021/07/13 19:41:06;;;;;;;;;;;23.10;48.10;;;;;;8327412;28;19932;-50
2021/07/13 19:45:07;;;;;;;;;;;23.10;48.10;;;;;;8332317;28;20003;-50
2021/07/13 19:49:08;;;;;;;;;;;23.10;48.10;;;;;;8327264;28;20390;-48
2021/07/13 19:53:08;;;;;;;;;;;23.10;48.10;;;;;;8327788;28;19925;-50
2021/07/13 19:57:09;;;;;;;;;;;23.00;48.00;;;;;;8327372;28;19919;-52
2021/07/13 20:01:09;;;;;;;;;;;23.00;48.10;;;;;;8331361;28;20290;-49
2021/07/13 20:05:10;;;;;;;;;;;23.00;48.00;;;;;;8326989;28;20340;-52
2021/07/13 20:09:11;;;;;;;;;;;23.00;48.10;;;;;;8326986;28;19933;-49
2021/07/13 20:13:13;;;;;;;;;;;23.00;48.10;;;;;;8315970;28;22347;-51
2021/07/13 20:17:13;;;;;;;;;;;23.00;48.60;;;;;;8295662;28;19917;-48
2021/07/13 20:21:14;;;;;;;;;;;23.00;48.10;;;;;;8331192;28;19917;-48
2021/07/13 20:25:14;;;;;;;;;;;23.00;48.10;;;;;;8326110;28;19917;-50
2021/07/13 20:29:15;;;;;;;;;;;23.00;48.10;;;;;;8326405;28;19957;-48
2021/07/13 20:33:15;;;;;;;;;;;23.00;48.10;;;;;;8326514;28;20256;-48
2021/07/13 20:37:16;;;;;;;;;;;23.00;48.10;;;;;;8330672;28;19917;-50
2021/07/13 20:41:17;;;;;;;;;;;22.90;48.10;;;;;;8299587;28;19917;-49
2021/07/13 20:45:17;;;;;;;;;;;22.90;48.00;;;;;;8311987;28;19924;-48
2021/07/13 20:49:18;;;;;;;;;;;22.90;48.00;;;;;;8325917;28;19922;-50
2021/07/13 20:53:18;;;;;;;;;;;22.90;48.00;;;;;;8333417;28;19917;-49
2021/07/13 20:57:18;;;;;;;;;;;22.90;48.00;;;;;;8333464;28;19921;-50
2021/07/13 21:01:19;;;;;;;;;;;22.90;48.10;;;;;;8332271;28;20385;-50
2021/07/13 21:05:20;;;;;;;;;;;22.90;48.10;;;;;;8332827;28;20402;-50
2021/07/13 21:09:20;;;;;;;;;;;22.90;48.00;;;;;;8332411;28;19925;-50
2021/07/13 21:13:21;;;;;;;;;;;22.90;48.10;;;;;;8336463;28;19975;-50
2021/07/13 21:17:21;;;;;;;;;;;22.90;48.00;;;;;;8332349;28;20282;-51
2021/07/13 21:21:22;;;;;;;;;;;22.90;48.00;;;;;;8332499;28;20408;-50
2021/07/13 21:25:22;;;;;;;;;;;22.90;48.10;;;;;;8331489;28;19917;-49
2021/07/13 21:29:23;;;;;;;;;;;22.90;48.00;;;;;;8336358;28;19926;-51
2021/07/13 21:33:23;;;;;;;;;;;22.80;48.00;;;;;;8303397;28;19921;-50
2021/07/13 21:37:24;;;;;;;;;;;22.80;48.00;;;;;;8317469;28;20065;-49
2021/07/13 21:41:24;;;;;;;;;;;22.80;48.00;;;;;;8331420;28;20286;-54
2021/07/13 21:45:24;;;;;;;;;;;22.80;48.00;;;;;;8336221;28;19920;-51
2021/07/13 21:49:26;;;;;;;;;;;22.80;48.00;;;;;;8330640;28;20293;-52
2021/07/13 21:53:26;;;;;;;;;;;22.80;48.00;;;;;;8331710;28;19924;-50
2021/07/13 21:57:27;;;;;;;;;;;22.80;48.00;;;;;;8318664;28;19918;-53
2021/07/13 22:01:27;;;;;;;;;;;22.80;48.00;;;;;;8306625;28;19928;-49
2021/07/13 22:05:28;;;;;;;;;;;22.80;48.00;;;;;;8334127;28;19921;-53
2021/07/13 22:09:28;;;;;;;;;;;22.80;48.00;;;;;;8330823;28;19925;-50
2021/07/13 22:13:29;;;;;;;;;;;22.80;48.00;;;;;;8330235;28;20000;-48
2021/07/13 22:17:29;;;;;;;;;;;22.70;47.90;;;;;;8330799;28;19923;-53
2021/07/13 22:21:30;;;;;;;;;;;22.80;48.00;;;;;;8334778;28;20274;-52
2021/07/13 22:25:30;;;;;;;;;;;22.70;47.90;;;;;;8329345;28;19917;-51
2021/07/13 22:29:31;;;;;;;;;;;22.70;47.90;;;;;;8330129;28;19929;-52
2021/07/13 22:33:31;;;;;;;;;;;22.70;47.90;;;;;;8329901;28;20282;-49
2021/07/13 22:37:32;;;;;;;;;;;22.70;47.90;;;;;;8331700;28;19914;-50
2021/07/13 22:41:33;;;;;;;;;;;22.70;47.90;;;;;;8332049;28;20324;-54
2021/07/13 22:45:33;;;;;;;;;;;22.70;47.90;;;;;;8329602;28;20301;-52
2021/07/13 22:49:34;;;;;;;;;;;22.70;47.90;;;;;;8328952;28;20282;-49
2021/07/13 22:53:34;;;;;;;;;;;22.70;47.90;;;;;;8329341;28;19979;-53
2021/07/13 22:57:35;;;;;;;;;;;22.70;47.90;;;;;;8334069;28;19967;-51
2021/07/13 23:01:35;;;;;;;;;;;22.70;47.90;;;;;;8329433;28;19917;-49
2021/07/13 23:05:36;;;;;;;;;;;22.70;47.90;;;;;;8329287;28;19995;-50
2021/07/13 23:09:36;;;;;;;;;;;22.70;47.90;;;;;;8328990;28;20027;-50
2021/07/13 23:13:38;;;;;;;;;;;22.60;47.80;;;;;;8332752;28;19943;-50
2021/07/13 23:17:39;;;;;;;;;;;22.60;47.80;;;;;;8298842;28;19963;-53
2021/07/13 23:21:40;;;;;;;;;;;22.60;47.80;;;;;;8316717;28;19917;-50
2021/07/13 23:25:40;;;;;;;;;;;22.60;47.80;;;;;;8328019;28;20312;-51
2021/07/13 23:29:41;;;;;;;;;;;22.60;47.80;;;;;;8328476;28;20456;-50